Time;durP1;ratioP1;P1;durP2;ratioP2;P2;SDS_P1;SDS_P2;PMS_P1;PMS_P2;Temp;Humidity;BMP_temperature;BMP_pressure;BME280_temperature;BME280_humidity;BME280_pressure;Samples;Min_cycle;Max_cycle;Signal;HPM_P1;HPM_P2
2023/05/29 00:04:10;;;;;;;4.25;2.15;;;;;;;12.75;52.88;100174.69;10505917;28;20051;-59
2023/05/29 00:09:12;;;;;;;4.15;1.80;;;;;;;12.51;53.64;100166.63;10508420;28;20047;-58
2023/05/29 00:14:14;;;;;;;2.90;1.52;;;;;;;12.65;53.21;100177.06;10506655;28;20051;-58
2023/05/29 00:19:17;;;;;;;3.17;1.58;;;;;;;12.66;53.38;100172.69;10505089;28;20105;-59
2023/05/29 00:24:20;;;;;;;4.20;1.67;;;;;;;12.75;53.43;100166.81;10505669;28;20052;-58
2023/05/29 00:29:22;;;;;;;3.88;1.80;;;;;;;12.65;53.35;100174.44;10505377;28;20453;-58
2023/05/29 00:34:24;;;;;;;3.90;1.70;;;;;;;12.62;53.84;100179.06;10487337;28;20051;-58
2023/05/29 00:39:26;;;;;;;2.53;1.55;;;;;;;12.69;53.71;100181.19;10508892;28;20059;-58
2023/05/29 00:44:27;;;;;;;4.22;1.80;;;;;;;12.41;53.90;100185.66;10506720;28;20094;-59
2023/05/29 00:49:29;;;;;;;3.65;1.70;;;;;;;12.45;54.20;100182.75;10507801;28;20056;-58
2023/05/29 00:54:32;;;;;;;6.05;1.98;;;;;;;12.46;54.44;100179.19;10506501;28;21000;-59
2023/05/29 00:59:34;;;;;;;3.33;1.60;;;;;;;11.97;54.89;100191.00;10488865;28;20055;-58
2023/05/29 01:04:37;;;;;;;2.67;1.48;;;;;;;12.06;55.06;100198.31;10487791;28;20408;-59
2023/05/29 01:09:40;;;;;;;4.30;1.77;;;;;;;12.15;54.90;100195.97;10488304;28;20056;-58
2023/05/29 01:14:42;;;;;;;2.97;1.50;;;;;;;12.19;55.04;100186.16;10514565;28;20040;-59
2023/05/29 01:19:44;;;;;;;3.45;1.80;;;;;;;12.14;54.97;100188.19;10487977;28;20047;-58
2023/05/29 01:24:53;;;;;;;3.30;1.77;;;;;;;12.04;55.67;100190.56;10512113;28;20044;-59
2023/05/29 01:29:56;;;;;;;3.20;1.70;;;;;;;11.57;55.66;100191.72;10514348;28;20058;-58
2023/05/29 01:34:58;;;;;;;2.97;1.60;;;;;;;11.63;56.16;100186.13;10493209;28;20515;-58
2023/05/29 01:40:01;;;;;;;4.50;1.88;;;;;;;11.74;56.07;100184.56;10494166;28;20040;-58
2023/05/29 01:45:05;;;;;;;3.08;1.75;;;;;;;11.69;56.16;100189.22;10513216;28;20056;-58
2023/05/29 01:50:09;;;;;;;4.32;1.70;;;;;;;11.73;56.06;100189.88;10494214;28;20075;-57
2023/05/29 01:55:11;;;;;;;3.13;1.60;;;;;;;11.61;56.67;100186.22;10512639;28;20040;-58
2023/05/29 02:00:16;;;;;;;3.88;1.88;;;;;;;11.62;56.66;100189.69;10512939;28;20051;-58
2023/05/29 02:05:18;;;;;;;3.75;1.58;;;;;;;11.59;56.07;100190.72;10502312;28;20083;-58
2023/05/29 02:10:20;;;;;;;3.42;1.77;;;;;;;11.35;56.48;100181.69;10483869;28;20054;-58
2023/05/29 02:15:22;;;;;;;3.30;1.42;;;;;;;11.28;56.35;100183.81;10518551;28;20131;-58
2023/05/29 02:20:24;;;;;;;1.83;1.27;;;;;;;11.40;56.46;100181.44;10499959;28;20139;-58
2023/05/29 02:25:26;;;;;;;3.00;1.70;;;;;;;11.40;56.19;100176.19;10500509;28;20046;-58
2023/05/29 02:30:28;;;;;;;2.90;1.50;;;;;;;11.20;56.80;100186.06;10519332;28;20055;-58
2023/05/29 02:35:30;;;;;;;3.83;1.60;;;;;;;11.05;56.96;100191.34;10517203;28;20040;-58
2023/05/29 02:40:32;;;;;;;3.00;1.58;;;;;;;10.68;57.38;100207.41;10499884;28;20492;-58
2023/05/29 02:45:34;;;;;;;3.00;1.70;;;;;;;10.70;57.61;100197.69;10497432;28;20039;-58
2023/05/29 02:50:36;;;;;;;4.03;1.70;;;;;;;10.82;57.51;100203.09;10518989;28;20075;-58
2023/05/29 02:55:38;;;;;;;3.42;1.70;;;;;;;10.77;57.76;100209.47;10499541;28;20054;-58
2023/05/29 03:00:39;;;;;;;2.83;1.60;;;;;;;10.76;57.61;100208.66;10517583;28;20048;-58
2023/05/29 03:05:41;;;;;;;2.78;1.52;;;;;;;10.88;57.52;100209.72;10508096;28;20051;-58
2023/05/29 03:10:44;;;;;;;3.28;1.48;;;;;;;10.94;57.22;100212.84;10508640;28;20083;-59
2023/05/29 03:15:47;;;;;;;2.45;1.52;;;;;;;10.86;57.42;100217.69;10510528;28;20097;-58
2023/05/29 03:20:51;;;;;;;2.22;1.40;;;;;;;10.86;57.39;100222.91;10509601;28;20048;-58
2023/05/29 03:25:53;;;;;;;3.45;1.70;;;;;;;10.85;57.36;100226.44;10509918;28;20126;-58
2023/05/29 03:30:55;;;;;;;3.55;1.67;;;;;;;10.85;57.55;100218.59;10508426;28;20044;-58
2023/05/29 03:35:57;;;;;;;3.05;1.48;;;;;;;10.88;57.42;100218.44;10508478;28;20044;-58
2023/05/29 03:41:00;;;;;;;3.00;1.30;;;;;;;10.89;57.24;100220.09;10491341;28;20139;-58
2023/05/29 03:46:02;;;;;;;4.07;2.03;;;;;;;10.90;57.05;100223.56;10491913;28;20075;-58
2023/05/29 03:51:06;;;;;;;3.38;1.83;;;;;;;10.85;57.31;100234.28;10491411;28;20040;-58
2023/05/29 03:56:10;;;;;;;2.55;1.60;;;;;;;10.87;57.28;100236.81;10490085;28;20621;-58
2023/05/29 04:01:12;;;;;;;2.90;1.55;;;;;;;11.01;57.02;100252.59;10510551;28;20040;-58
2023/05/29 04:06:14;;;;;;;3.28;1.90;;;;;;;11.08;56.78;100260.06;10509040;28;20078;-58
2023/05/29 04:11:16;;;;;;;4.05;1.80;;;;;;;11.21;56.78;100255.78;10491066;28;20040;-58
2023/05/29 04:16:18;;;;;;;3.17;1.50;;;;;;;12.81;55.29;100260.91;10475170;28;20046;-59
2023/05/29 04:21:21;;;;;;;2.50;1.58;;;;;;;15.23;51.18;100260.75;10504177;28;20051;-59
2023/05/29 04:26:25;;;;;;;3.53;1.67;;;;;;;17.19;47.63;100255.88;10490684;28;20059;-58
2023/05/29 04:31:28;;;;;;;3.28;1.63;;;;;;;18.79;44.61;100265.91;10488048;28;20044;-59
2023/05/29 04:36:32;;;;;;;3.95;1.60;;;;;;;20.11;42.37;100270.59;10480194;28;20526;-59
2023/05/29 04:41:42;;;;;;;3.33;1.65;;;;;;;21.36;40.42;100268.16;10506875;28;20040;-59
2023/05/29 04:46:51;;;;;;;3.53;1.80;;;;;;;21.90;39.31;100275.94;10428084;28;20052;-59
2023/05/29 04:51:54;;;;;;;3.50;1.80;;;;;;;22.88;37.77;100278.19;10431355;28;20055;-58
2023/05/29 04:56:58;;;;;;;4.03;1.60;;;;;;;23.92;36.36;100280.97;10429493;28;20129;-59
2023/05/29 05:02:05;;;;;;;2.92;1.73;;;;;;;24.64;35.16;100285.34;10430672;28;20041;-59
2023/05/29 05:07:09;;;;;;;2.67;1.52;;;;;;;25.19;33.81;100285.28;10430597;28;20448;-59
2023/05/29 05:12:11;;;;;;;3.03;1.65;;;;;;;25.21;33.38;100288.59;10429044;28;20204;-59
2023/05/29 05:17:13;;;;;;;2.25;1.50;;;;;;;25.99;32.70;100283.03;10428180;28;20037;-59
2023/05/29 05:22:16;;;;;;;2.25;1.45;;;;;;;26.31;31.78;100277.31;10430735;28;20041;-60
2023/05/29 05:27:18;;;;;;;2.45;1.50;;;;;;;24.32;32.59;100288.13;10429241;28;20049;-59
2023/05/29 05:32:20;;;;;;;3.03;1.70;;;;;;;21.64;36.00;100291.84;10427017;28;20053;-59
2023/05/29 05:37:29;;;;;;;2.80;1.55;;;;;;;19.92;38.20;100299.84;10425929;28;20041;-59
2023/05/29 05:42:32;;;;;;;2.90;1.70;;;;;;;18.94;39.58;100299.03;10422963;28;20067;-59
2023/05/29 05:47:41;;;;;;;4.65;1.77;;;;;;;18.14;40.84;100307.84;10427259;28;20118;-59
2023/05/29 05:52:43;;;;;;;2.25;1.45;;;;;;;17.70;41.97;100301.88;10428748;28;20057;-59
2023/05/29 05:57:46;;;;;;;3.63;1.70;;;;;;;17.43;42.73;100313.88;10428233;28;20052;-59
2023/05/29 06:02:48;;;;;;;3.65;1.70;;;;;;;17.20;43.30;100318.34;10423003;28;20717;-59
2023/05/29 06:08:05;;;;;;;3.50;1.77;;;;;;;17.40;43.79;100319.41;10426522;28;20159;-59
2023/05/29 06:13:07;;;;;;;3.38;1.80;;;;;;;17.46;44.11;100324.19;10411126;28;20051;-59
2023/05/29 06:18:18;;;;;;;4.22;1.88;;;;;;;17.58;44.12;100324.03;10424670;28;20038;-59
2023/05/29 06:23:21;;;;;;;3.42;1.83;;;;;;;17.68;44.25;100330.25;10423949;28;20045;-59
2023/05/29 06:28:24;;;;;;;2.60;1.40;;;;;;;17.82;43.99;100335.22;10442124;28;20049;-59
2023/05/29 06:33:27;;;;;;;5.55;1.80;;;;;;;17.80;44.17;100334.53;10418638;28;20494;-59
2023/05/29 06:38:29;;;;;;;3.28;1.88;;;;;;;17.73;43.95;100338.63;10423409;28;20461;-59
2023/05/29 06:43:30;;;;;;;3.38;1.90;;;;;;;17.88;43.87;100331.22;10427715;28;20051;-59
2023/05/29 06:48:36;;;;;;;4.93;1.75;;;;;;;18.05;43.91;100343.03;10508633;28;20048;-59
2023/05/29 06:53:38;;;;;;;3.00;1.77;;;;;;;17.88;44.30;100338.31;10493081;28;20044;-60
2023/05/29 06:58:42;;;;;;;2.88;1.65;;;;;;;18.30;43.53;100348.00;10508061;28;20047;-59
2023/05/29 07:03:44;;;;;;;3.92;2.05;;;;;;;18.42;43.41;100345.09;10509407;28;20051;-59
2023/05/29 07:08:46;;;;;;;3.85;1.75;;;;;;;18.56;43.06;100338.66;10506898;28;20048;-59
2023/05/29 07:13:48;;;;;;;5.30;1.95;;;;;;;18.50;43.09;100341.81;10475618;28;20087;-59
2023/05/29 07:18:50;;;;;;;5.72;1.85;;;;;;;18.90;42.59;100347.13;10509850;28;20052;-59
2023/05/29 07:23:52;;;;;;;5.68;2.20;;;;;;;19.96;41.94;100344.53;10507053;28;20488;-59
2023/05/29 07:28:54;;;;;;;4.47;1.92;;;;;;;21.35;40.27;100335.66;10508126;28;20039;-59
2023/05/29 07:33:56;;;;;;;3.15;1.67;;;;;;;23.39;38.78;100332.16;10507704;28;20044;-59
2023/05/29 07:38:58;;;;;;;3.13;1.70;;;;;;;25.33;36.18;100330.03;10483486;28;20042;-59
2023/05/29 07:44:00;;;;;;;3.10;1.83;;;;;;;26.28;34.61;100325.97;10489429;28;20059;-60
2023/05/29 07:49:05;;;;;;;6.80;2.10;;;;;;;25.49;34.28;100323.78;10504044;28;20122;-59
2023/05/29 07:54:07;;;;;;;4.30;1.80;;;;;;;26.17;33.40;100326.41;10488128;28;20537;-59
2023/05/29 07:59:09;;;;;;;5.15;1.77;;;;;;;26.52;32.75;100315.81;10484474;28;20040;-59
2023/05/29 08:04:11;;;;;;;2.88;1.60;;;;;;;27.13;31.35;100311.91;10488645;28;20117;-60
2023/05/29 08:09:14;;;;;;;7.85;1.95;;;;;;;26.65;30.17;100313.34;10487457;28;20040;-59
2023/05/29 08:14:16;;;;;;;2.70;1.60;;;;;;;26.74;30.56;100315.91;10479520;28;20125;-59
2023/05/29 08:19:18;;;;;;;3.55;1.60;;;;;;;26.54;29.49;100312.94;10489618;28;20573;-59
2023/05/29 08:24:20;;;;;;;3.10;1.70;;;;;;;26.64;30.84;100305.47;10513387;28;20071;-59
2023/05/29 08:29:22;;;;;;;2.90;1.58;;;;;;;26.76;30.36;100309.34;10512598;28;20059;-59
2023/05/29 08:34:24;;;;;;;2.92;1.48;;;;;;;26.80;30.62;100310.66;10513717;28;20044;-59
2023/05/29 08:39:26;;;;;;;2.95;1.73;;;;;;;27.03;30.16;100300.63;10511258;28;20051;-59
2023/05/29 08:44:33;;;;;;;3.33;1.98;;;;;;;26.48;30.47;100308.31;10513367;28;20059;-60
2023/05/29 08:49:45;;;;;;;2.67;1.45;;;;;;;27.12;29.70;100301.31;10512806;28;20071;-59
2023/05/29 08:54:48;;;;;;;2.20;1.30;;;;;;;26.79;29.08;100303.63;10514070;28;20052;-59
2023/05/29 08:59:51;;;;;;;3.25;1.80;;;;;;;26.79;29.81;100308.16;10511059;28;20048;-59
2023/05/29 09:04:54;;;;;;;3.60;1.50;;;;;;;27.21;29.46;100301.06;10513073;28;20047;-59
2023/05/29 09:09:56;;;;;;;2.80;1.40;;;;;;;27.31;29.51;100298.91;10511603;28;20689;-59
2023/05/29 09:14:58;;;;;;;4.07;1.58;;;;;;;26.96;28.90;100294.34;10511868;28;20055;-59
2023/05/29 09:20:00;;;;;;;2.58;1.45;;;;;;;26.98;29.45;100292.28;10511578;28;20046;-59
2023/05/29 09:25:03;;;;;;;3.08;1.50;;;;;;;26.99;29.30;100304.72;10494560;28;20488;-60
2023/05/29 09:30:06;;;;;;;3.58;1.60;;;;;;;27.14;29.30;100307.34;10499970;28;20044;-60
2023/05/29 09:35:09;;;;;;;2.78;1.52;;;;;;;27.32;28.78;100299.75;10511651;28;20874;-60
2023/05/29 09:40:14;;;;;;;2.90;1.60;;;;;;;27.08;29.23;100298.19;10506585;28;20059;-59
2023/05/29 09:45:22;;;;;;;2.42;1.40;;;;;;;26.53;28.71;100287.13;10511753;28;20442;-59
2023/05/29 09:50:28;;;;;;;2.27;1.50;;;;;;;26.49;29.08;100288.50;10509612;28;20652;-60
2023/05/29 09:55:32;;;;;;;2.65;1.33;;;;;;;26.77;28.92;100286.03;10506412;28;20047;-59
2023/05/29 10:00:34;;;;;;;1.77;1.30;;;;;;;26.31;28.64;100291.56;10489798;28;20051;-59
2023/05/29 10:05:38;;;;;;;3.10;1.67;;;;;;;26.40;28.75;100292.31;10510517;28;20044;-59
2023/05/29 10:10:43;;;;;;;3.30;1.50;;;;;;;26.80;28.93;100291.88;10502890;28;20052;-59
2023/05/29 10:15:50;;;;;;;3.60;1.55;;;;;;;26.58;27.88;100296.34;10509268;28;20105;-59
2023/05/29 10:20:56;;;;;;;4.47;1.50;;;;;;;26.47;28.21;100282.50;10510839;28;20051;-60
2023/05/29 10:26:11;;;;;;;5.13;1.70;;;;;;;26.43;26.72;100286.56;10508402;28;20048;-60
2023/05/29 10:31:28;;;;;;;3.53;1.50;;;;;;;26.41;27.36;100288.59;10506076;28;20062;-60
2023/05/29 10:36:53;;;;;;;3.17;1.50;;;;;;;26.48;25.40;100289.56;10507635;28;20059;-60
2023/05/29 10:41:58;;;;;;;2.60;1.40;;;;;;;25.96;27.54;100294.13;10508852;28;20512;-60
2023/05/29 10:47:00;;;;;;;2.38;1.30;;;;;;;25.36;26.69;100289.56;10505782;28;20133;-60
2023/05/29 10:52:05;;;;;;;4.43;1.42;;;;;;;25.33;26.16;100280.97;10510076;28;20052;-60
2023/05/29 10:57:09;;;;;;;3.33;1.60;;;;;;;25.51;26.77;100273.53;10507280;28;20048;-60
2023/05/29 11:02:16;;;;;;;2.13;1.30;;;;;;;25.31;27.79;100270.47;10508898;28;20508;-59
2023/05/29 11:07:35;;;;;;;2.88;1.55;;;;;;;25.32;25.99;100266.78;10506171;28;20062;-60
2023/05/29 11:12:56;;;;;;;3.67;1.45;;;;;;;25.18;25.02;100272.91;10508133;28;20063;-60
2023/05/29 11:18:08;;;;;;;3.75;1.63;;;;;;;25.25;24.56;100268.50;10506892;28;20531;-59
2023/05/29 11:23:17;;;;;;;3.25;1.40;;;;;;;24.78;25.18;100273.94;10508969;28;20047;-60
2023/05/29 11:28:19;;;;;;;3.27;1.40;;;;;;;24.96;24.88;100269.16;10506830;28;20453;-59
2023/05/29 11:33:26;;;;;;;1.98;1.38;;;;;;;24.72;25.07;100271.13;10508130;28;20444;-60
2023/05/29 11:38:28;;;;;;;3.78;1.58;;;;;;;24.42;26.11;100251.34;10502566;28;20059;-59
2023/05/29 11:43:32;;;;;;;3.50;1.50;;;;;;;24.31;26.69;100245.53;10502674;28;21061;-60
2023/05/29 11:48:43;;;;;;;3.65;1.50;;;;;;;24.84;26.93;100249.16;10502349;28;20462;-60
2023/05/29 11:53:47;;;;;;;1.98;1.40;;;;;;;24.65;26.90;100232.69;10503026;28;20047;-59
2023/05/29 11:58:50;;;;;;;3.05;1.48;;;;;;;24.73;26.31;100240.72;10500917;28;20036;-60
2023/05/29 12:03:53;;;;;;;3.00;1.60;;;;;;;24.52;27.07;100237.75;10487036;28;20048;-59
2023/05/29 12:08:54;;;;;;;2.47;1.45;;;;;;;24.60;27.52;100235.06;10501020;28;20119;-59
2023/05/29 12:14:00;;;;;;;2.40;1.45;;;;;;;24.35;26.90;100236.19;10506883;28;20180;-59
2023/05/29 12:19:02;;;;;;;3.20;1.40;;;;;;;24.70;27.54;100233.00;10505666;28;20071;-59
2023/05/29 12:24:05;;;;;;;2.92;1.50;;;;;;;24.93;27.59;100224.06;10506898;28;20056;-59
2023/05/29 12:29:15;;;;;;;2.22;1.50;;;;;;;24.83;27.40;100241.34;10503335;28;20044;-59
2023/05/29 12:34:19;;;;;;;2.78;1.73;;;;;;;24.60;27.76;100235.06;10507193;28;20055;-59
2023/05/29 12:39:22;;;;;;;3.70;1.58;;;;;;;24.99;27.80;100235.88;10482466;28;20047;-59
2023/05/29 12:44:23;;;;;;;2.70;1.40;;;;;;;24.84;27.79;100225.09;10504939;28;20044;-59
2023/05/29 12:49:26;;;;;;;2.60;1.48;;;;;;;24.90;28.70;100232.41;10499560;28;20581;-59
2023/05/29 12:54:28;;;;;;;3.17;1.50;;;;;;;25.37;28.18;100216.22;10504371;28;20048;-59
2023/05/29 12:59:30;;;;;;;2.08;1.40;;;;;;;25.04;27.93;100241.53;10501530;28;20046;-59
2023/05/29 13:04:32;;;;;;;2.08;1.27;;;;;;;25.15;28.41;100224.22;10484726;28;20052;-59
2023/05/29 13:09:34;;;;;;;1.73;1.20;;;;;;;25.49;27.67;100216.66;10486111;28;20095;-59
2023/05/29 13:14:36;;;;;;;2.35;1.38;;;;;;;25.50;27.36;100211.09;10511976;28;20066;-59
2023/05/29 13:19:37;;;;;;;2.63;1.52;;;;;;;25.79;27.82;100210.34;10511812;28;20930;-59
2023/05/29 13:24:39;;;;;;;3.72;1.63;;;;;;;25.62;27.46;100217.69;10513040;28;20059;-59
2023/05/29 13:29:44;;;;;;;2.92;1.60;;;;;;;25.73;27.03;100211.88;10510717;28;20052;-59
2023/05/29 13:34:46;;;;;;;2.63;1.50;;;;;;;25.71;27.49;100210.41;10494834;28;20048;-59
2023/05/29 13:39:48;;;;;;;2.42;1.48;;;;;;;25.78;27.19;100214.03;10511121;28;20503;-59
2023/05/29 13:44:50;;;;;;;3.55;1.50;;;;;;;25.32;27.68;100204.38;10509400;28;20209;-59
2023/05/29 13:49:53;;;;;;;2.22;1.40;;;;;;;25.58;27.64;100218.22;10508945;28;20055;-59
2023/05/29 13:54:57;;;;;;;3.03;1.50;;;;;;;25.68;27.25;100200.88;10512062;28;20055;-59
2023/05/29 13:59:59;;;;;;;2.38;1.60;;;;;;;25.90;27.83;100189.28;10489890;28;20826;-59
2023/05/29 14:05:01;;;;;;;3.13;1.70;;;;;;;25.44;28.14;100201.13;10511408;28;20139;-59
2023/05/29 14:10:05;;;;;;;2.40;1.45;;;;;;;25.38;27.54;100192.97;10509360;28;20068;-59
2023/05/29 14:15:08;;;;;;;2.90;1.65;;;;;;;25.95;27.93;100182.53;10510711;28;20056;-59
2023/05/29 14:20:10;;;;;;;3.40;1.55;;;;;;;25.80;29.18;100196.75;10500556;28;20051;-59
2023/05/29 14:25:12;;;;;;;3.67;1.60;;;;;;;25.70;28.67;100182.78;10487976;28;20043;-59
2023/05/29 14:30:14;;;;;;;2.35;1.42;;;;;;;25.80;28.45;100182.50;10488584;28;20040;-59
2023/05/29 14:35:16;;;;;;;2.42;1.40;;;;;;;25.82;28.48;100181.31;10508479;28;20052;-59
2023/05/29 14:40:19;;;;;;;2.83;1.50;;;;;;;25.68;28.47;100184.81;10505640;28;20048;-59
2023/05/29 14:45:21;;;;;;;3.03;1.50;;;;;;;25.57;28.05;100182.56;10506882;28;20496;-59
2023/05/29 14:50:22;;;;;;;3.15;1.55;;;;;;;25.61;28.89;100186.53;10505724;28;20048;-59
2023/05/29 14:55:24;;;;;;;2.88;1.55;;;;;;;25.27;29.03;100183.47;10508480;28;20411;-59
2023/05/29 15:00:26;;;;;;;3.42;1.80;;;;;;;24.97;30.36;100177.19;10501458;28;20056;-59
2023/05/29 15:05:29;;;;;;;2.63;1.50;;;;;;;25.27;29.75;100179.97;10508419;28;20052;-59
2023/05/29 15:10:32;;;;;;;3.90;1.65;;;;;;;25.25;29.20;100180.16;10503899;28;20059;-59
2023/05/29 15:15:34;;;;;;;3.50;1.35;;;;;;;25.58;29.46;100181.56;10501820;28;20078;-59
2023/05/29 15:20:48;;;;;;;2.85;1.55;;;;;;;25.66;29.35;100177.97;10506930;28;20119;-59
2023/05/29 15:25:51;;;;;;;3.00;1.40;;;;;;;25.60;29.92;100176.88;10484812;28;20052;-60
2023/05/29 15:30:54;;;;;;;2.92;1.42;;;;;;;25.47;29.56;100176.63;10507175;28;20048;-59
2023/05/29 15:35:56;;;;;;;4.03;1.73;;;;;;;25.47;29.59;100176.63;10504831;28;21612;-59
2023/05/29 15:40:58;;;;;;;2.58;1.50;;;;;;;25.30;28.87;100174.25;10507595;28;20079;-59
2023/05/29 15:46:00;;;;;;;2.53;1.40;;;;;;;24.80;29.56;100188.16;10503012;28;20759;-59
2023/05/29 15:51:04;;;;;;;3.00;1.50;;;;;;;24.74;30.27;100178.16;10498151;28;20052;-59
2023/05/29 15:56:06;;;;;;;2.88;1.50;;;;;;;24.74;29.83;100178.16;10501707;28;20048;-59
2023/05/29 16:01:08;;;;;;;2.15;1.30;;;;;;;24.55;29.73;100191.97;10488291;28;20063;-59
2023/05/29 16:06:10;;;;;;;3.22;1.50;;;;;;;24.54;30.09;100190.28;10498066;28;20158;-59
2023/05/29 16:11:13;;;;;;;3.33;1.58;;;;;;;24.58;29.70;100197.78;10505380;28;20476;-59
2023/05/29 16:16:16;;;;;;;2.35;1.40;;;;;;;24.93;29.80;100185.75;10496482;28;20055;-60
2023/05/29 16:21:21;;;;;;;4.80;1.80;;;;;;;24.87;29.28;100179.28;10505236;28;20081;-60
2023/05/29 16:26:30;;;;;;;2.78;1.40;;;;;;;24.57;29.58;100182.75;10502240;28;20096;-59
2023/05/29 16:31:36;;;;;;;2.53;1.50;;;;;;;24.47;29.96;100192.81;10505416;28;20040;-59
2023/05/29 16:36:38;;;;;;;2.60;1.35;;;;;;;24.21;29.98;100187.75;10501433;28;20047;-59
2023/05/29 17:04:22;;;;;;;3.00;1.50;;;;;;;22.43;32.46;100195.84;10586960;27;20563;-59
2023/05/29 17:09:26;;;;;;;3.35;1.52;;;;;;;22.96;32.20;100203.50;10581068;28;20047;-60
2023/05/29 17:14:28;;;;;;;3.17;1.50;;;;;;;23.33;32.20;100198.56;10567521;28;20125;-60
2023/05/29 17:19:30;;;;;;;2.97;1.52;;;;;;;23.22;32.51;100199.72;10580383;27;20053;-60
2023/05/29 17:24:32;;;;;;;2.28;1.50;;;;;;;23.15;32.36;100212.03;10584948;27;20044;-60
2023/05/29 17:29:34;;;;;;;3.00;1.60;;;;;;;23.06;32.57;100220.19;10579524;27;20076;-60
2023/05/29 17:34:36;;;;;;;3.13;1.63;;;;;;;22.68;32.87;100216.22;10586811;28;20043;-60
2023/05/29 17:39:38;;;;;;;3.25;1.48;;;;;;;22.55;32.94;100222.06;10580335;27;20039;-60
2023/05/29 17:44:40;;;;;;;3.30;1.50;;;;;;;22.63;32.68;100229.22;10582898;28;20477;-60
2023/05/29 17:49:42;;;;;;;2.85;1.40;;;;;;;22.53;32.81;100223.19;10578573;27;20055;-60
2023/05/29 17:54:44;;;;;;;4.80;1.50;;;;;;;22.23;33.39;100239.72;10583385;27;20043;-60
2023/05/29 17:59:46;;;;;;;3.60;1.60;;;;;;;22.16;33.56;100238.66;10578580;28;20043;-60
2023/05/29 18:04:50;;;;;;;2.63;1.30;;;;;;;22.05;33.48;100245.09;10585147;27;20400;-59
2023/05/29 18:09:52;;;;;;;8.07;1.45;;;;;;;21.92;34.02;100240.16;10582635;27;20047;-60
2023/05/29 18:14:54;;;;;;;3.22;1.58;;;;;;;21.66;34.00;100239.31;10561128;28;20044;-60
2023/05/29 18:19:56;;;;;;;3.72;1.50;;;;;;;21.52;34.72;100241.69;10551134;28;20040;-59
2023/05/29 18:24:57;;;;;;;2.65;1.58;;;;;;;21.43;34.73;100242.63;10555558;28;20040;-60
2023/05/29 18:29:59;;;;;;;3.50;1.75;;;;;;;21.37;35.15;100245.88;10550852;28;20104;-60
2023/05/29 18:35:02;;;;;;;4.22;1.67;;;;;;;21.11;35.82;100259.06;10570949;27;20692;-59
2023/05/29 18:40:04;;;;;;;3.70;1.50;;;;;;;20.99;35.68;100253.13;10548161;27;20836;-60
2023/05/29 18:45:07;;;;;;;3.20;1.40;;;;;;;20.82;35.83;100277.03;10552192;27;20069;-59
2023/05/29 18:50:09;;;;;;;3.33;1.58;;;;;;;20.71;36.32;100271.91;10547362;28;20051;-60
2023/05/29 18:55:12;;;;;;;2.28;1.45;;;;;;;20.46;36.89;100278.69;10551849;27;20514;-60
2023/05/29 19:00:15;;;;;;;3.08;1.30;;;;;;;20.32;37.12;100279.19;10545460;28;20134;-59
2023/05/29 19:05:19;;;;;;;3.50;1.35;;;;;;;20.24;37.25;100279.06;10551264;28;20707;-59
2023/05/29 19:10:21;;;;;;;3.20;1.60;;;;;;;20.11;37.13;100287.34;10547007;27;20823;-59
2023/05/29 19:15:23;;;;;;;3.63;1.50;;;;;;;20.10;37.09;100298.13;10531888;28;20050;-59
2023/05/29 19:20:25;;;;;;;2.75;1.17;;;;;;;19.96;37.47;100315.34;10544601;28;20130;-59
2023/05/29 19:25:27;;;;;;;3.83;1.70;;;;;;;19.73;37.90;100329.00;10548960;28;20043;-59
2023/05/29 19:30:29;;;;;;;5.72;1.50;;;;;;;19.62;37.87;100334.47;10543651;28;20124;-60
2023/05/29 19:35:31;;;;;;;2.78;1.50;;;;;;;19.52;37.92;100344.25;10551078;27;20043;-59
2023/05/29 19:40:33;;;;;;;3.15;1.40;;;;;;;19.30;38.56;100351.47;10547197;28;20495;-59
2023/05/29 19:45:35;;;;;;;2.80;1.48;;;;;;;19.09;38.96;100348.09;10550579;27;20048;-60
2023/05/29 19:50:37;;;;;;;3.80;1.30;;;;;;;19.10;38.48;100354.19;10546016;27;20048;-59
2023/05/29 19:55:40;;;;;;;2.28;1.30;;;;;;;19.04;38.99;100358.25;10546916;28;20141;-59
2023/05/29 20:00:42;;;;;;;3.38;1.50;;;;;;;19.07;39.11;100373.03;10544291;27;20495;-60
2023/05/29 20:05:44;;;;;;;2.47;1.30;;;;;;;18.80;38.80;100372.75;10550442;27;20055;-60
2023/05/29 20:10:46;;;;;;;2.53;1.38;;;;;;;18.67;39.24;100383.56;10529885;28;20101;-59
2023/05/29 20:15:58;;;;;;;3.80;1.60;;;;;;;18.42;39.60;100391.97;10541370;28;20135;-59
2023/05/29 20:21:00;;;;;;;1.83;1.10;;;;;;;18.55;40.21;100390.78;10549789;27;20062;-59
2023/05/29 20:26:02;;;;;;;3.22;1.70;;;;;;;18.44;39.64;100403.25;10544057;28;20899;-60
2023/05/29 20:31:04;;;;;;;4.65;1.52;;;;;;;18.41;39.73;100406.16;10549649;28;20046;-59
2023/05/29 20:36:08;;;;;;;3.00;1.40;;;;;;;18.41;40.15;100414.09;10542294;27;20048;-59
2023/05/29 20:41:11;;;;;;;2.60;1.58;;;;;;;18.20;40.02;100415.94;10549592;28;20051;-59
2023/05/29 20:46:14;;;;;;;4.53;1.40;;;;;;;18.22;40.39;100421.94;10545275;28;20066;-59
2023/05/29 20:51:16;;;;;;;3.70;1.60;;;;;;;18.06;40.52;100426.75;10548691;28;20046;-59
2023/05/29 20:56:20;;;;;;;2.53;1.30;;;;;;;18.01;40.82;100421.03;10523296;28;20786;-59
2023/05/29 21:01:22;;;;;;;1.95;1.20;;;;;;;17.89;40.62;100425.53;10530490;28;20499;-59
2023/05/29 21:06:24;;;;;;;2.55;1.40;;;;;;;17.83;40.95;100433.97;10543172;28;20129;-59
2023/05/29 21:11:26;;;;;;;2.72;1.40;;;;;;;17.62;41.27;100439.19;10549382;28;20043;-59
2023/05/29 21:16:28;;;;;;;5.13;1.70;;;;;;;17.46;41.39;100435.28;10543063;28;20048;-59
2023/05/29 21:21:32;;;;;;;5.57;1.60;;;;;;;17.32;41.21;100438.16;10546844;28;20039;-59
2023/05/29 21:26:34;;;;;;;3.08;1.50;;;;;;;17.24;41.45;100446.66;10502630;28;21391;-59
2023/05/29 21:31:39;;;;;;;2.60;1.35;;;;;;;17.16;41.90;100449.06;10547447;28;20234;-59
2023/05/29 21:36:41;;;;;;;3.55;1.58;;;;;;;17.06;41.61;100444.66;10540159;28;20043;-59
2023/05/29 21:41:43;;;;;;;2.67;1.42;;;;;;;16.91;41.84;100447.53;10543775;28;20051;-59
2023/05/29 21:46:46;;;;;;;4.07;1.33;;;;;;;16.91;42.04;100451.97;10522226;28;20043;-59
2023/05/29 21:51:48;;;;;;;5.13;1.45;;;;;;;17.00;41.82;100462.66;10550250;28;20050;-59
2023/05/29 21:56:50;;;;;;;2.58;1.25;;;;;;;16.98;42.04;100461.94;10545467;28;20043;-59
2023/05/29 22:01:53;;;;;;;3.05;1.48;;;;;;;16.97;41.77;100480.56;10551882;27;20166;-59
2023/05/29 22:06:55;;;;;;;3.53;1.60;;;;;;;16.85;42.08;100479.69;10551189;28;20036;-59
2023/05/29 22:11:57;;;;;;;1.80;1.15;;;;;;;16.72;42.35;100476.31;10556643;28;20053;-59
2023/05/29 22:17:00;;;;;;;3.70;1.33;;;;;;;16.62;41.96;100490.34;10550582;28;20051;-59
2023/05/29 22:22:02;;;;;;;3.47;1.60;;;;;;;16.57;42.16;100489.84;10532701;28;20716;-59
2023/05/29 22:27:05;;;;;;;2.95;1.45;;;;;;;16.47;41.99;100481.75;10550397;28;20158;-59
2023/05/29 22:32:07;;;;;;;4.53;1.30;;;;;;;16.42;41.65;100477.75;10555326;28;20039;-59
2023/05/29 22:37:09;;;;;;;2.70;1.27;;;;;;;16.43;40.97;100484.72;10549635;27;20153;-59
2023/05/29 22:42:12;;;;;;;2.78;1.30;;;;;;;16.42;40.84;100480.41;10555543;28;20510;-59
2023/05/29 22:47:14;;;;;;;2.55;1.40;;;;;;;16.41;40.82;100478.72;10549699;28;20550;-59
2023/05/29 22:52:17;;;;;;;2.35;1.10;;;;;;;16.28;40.51;100476.16;10556045;28;20047;-59
2023/05/29 22:57:19;;;;;;;3.65;1.30;;;;;;;16.28;40.50;100484.09;10521594;28;20167;-59
2023/05/29 23:02:21;;;;;;;3.92;1.40;;;;;;;16.29;40.53;100484.91;10554282;28;20055;-59
2023/05/29 23:07:23;;;;;;;2.00;1.15;;;;;;;16.17;40.58;100484.88;10543288;27;20135;-59
2023/05/29 23:12:25;;;;;;;2.13;1.10;;;;;;;15.93;40.34;100494.59;10553728;27;20047;-59
2023/05/29 23:17:26;;;;;;;3.53;1.25;;;;;;;16.03;40.30;100498.25;10525055;28;20039;-58
2023/05/29 23:22:28;;;;;;;2.30;1.30;;;;;;;15.92;40.46;100505.25;10552406;28;20058;-59
2023/05/29 23:27:31;;;;;;;2.28;1.23;;;;;;;15.94;40.86;100512.09;10524116;27;20031;-58
2023/05/29 23:32:33;;;;;;;4.78;1.80;;;;;;;15.92;41.09;100519.28;10517085;28;20047;-59
2023/05/29 23:37:35;;;;;;;3.58;1.45;;;;;;;15.82;40.65;100526.19;10545781;28;20444;-59